ENHM

Heimdal Oilp

Heimdal Oilp, Norway
METAR ENHM 251450Z 22039KT 9999 FEW020 BKN040 BKN130 11/07 Q1020 W12/S5
Observed Flight Rules
Sep-25 @ 14:50 UTC (35 minutes ago) Visual Flight Rules
Wind Visibility Clouds
220° at 39 knots 10,000+ meters
  • Few at 2,000' AGL
  • Broken at 4,000' AGL
  • Broken at 13,000' AGL
Temperatures Readings
Current 11°C / 52°F
Dewpoint 7°C / 45°F
Humidity 77%
Altimeter 30.12" Hg
Pressure 1020 hPa
Elevation 10
METAR ENHM 251450Z 22039KT 9999 FEW020 BKN040 BKN130 11/07 Q1020 W12/S5
Observed Flight Rules
Sep-25 @ 14:50 UTC
(35 minutes ago)
VFR
Wind Visibility
220° at 39 knots 10,000+ meters
Clouds
  • Few at 2,000' AGL
  • Broken at 4,000' AGL
  • Broken at 13,000' AGL
Temperature Dewpoint
11°C / 52°F 7°C / 45°F
Humidity Altimeter Pressure
77% 30.12" Hg 1020 hPa